sensor_id;sensor_type;location;lat;lon;timestamp;pressure;altitude;pressure_sealevel;temperature;humidity
17855;BME280;9053;53.358;6.382;2023-06-04T00:01:47;102365.19;;;14.08;90.15
17855;BME280;9053;53.358;6.382;2023-06-04T00:04:18;102366.72;;;14.03;90.26
17855;BME280;9053;53.358;6.382;2023-06-04T00:06:50;102361.31;;;14.00;90.61
17855;BME280;9053;53.358;6.382;2023-06-04T00:09:22;102365.56;;;13.96;90.71
17855;BME280;9053;53.358;6.382;2023-06-04T00:11:52;102364.63;;;13.96;91.02
17855;BME280;9053;53.358;6.382;2023-06-04T00:14:34;102366.38;;;13.95;91.16
17855;BME280;9053;53.358;6.382;2023-06-04T00:17:07;102363.75;;;13.95;91.22
17855;BME280;9053;53.358;6.382;2023-06-04T00:19:39;102362.84;;;13.95;91.48
17855;BME280;9053;53.358;6.382;2023-06-04T00:22:09;102361.03;;;13.94;91.61
17855;BME280;9053;53.358;6.382;2023-06-04T00:24:41;102354.78;;;13.92;91.80
17855;BME280;9053;53.358;6.382;2023-06-04T00:27:11;102357.44;;;13.92;91.84
17855;BME280;9053;53.358;6.382;2023-06-04T00:29:41;102356.44;;;13.90;91.83
17855;BME280;9053;53.358;6.382;2023-06-04T00:32:11;102358.97;;;13.87;91.88
17855;BME280;9053;53.358;6.382;2023-06-04T00:34:41;102360.63;;;13.84;91.93
17855;BME280;9053;53.358;6.382;2023-06-04T00:37:11;102353.53;;;13.83;92.17
17855;BME280;9053;53.358;6.382;2023-06-04T00:39:44;102364.13;;;13.83;92.13
17855;BME280;9053;53.358;6.382;2023-06-04T00:42:14;102350.91;;;13.83;92.23
17855;BME280;9053;53.358;6.382;2023-06-04T00:44:47;102358.84;;;13.83;92.46
17855;BME280;9053;53.358;6.382;2023-06-04T00:47:18;102358.84;;;13.83;92.35
17855;BME280;9053;53.358;6.382;2023-06-04T00:49:50;102359.72;;;13.84;92.29
17855;BME280;9053;53.358;6.382;2023-06-04T00:52:20;102366.81;;;13.85;92.29
17855;BME280;9053;53.358;6.382;2023-06-04T00:54:53;102355.34;;;13.84;92.13
17855;BME280;9053;53.358;6.382;2023-06-04T00:57:23;102363.28;;;13.84;92.11
17855;BME280;9053;53.358;6.382;2023-06-04T00:59:53;102364.94;;;13.82;92.01
17855;BME280;9053;53.358;6.382;2023-06-04T01:02:24;102356.03;;;13.80;91.84
17855;BME280;9053;53.358;6.382;2023-06-04T01:05:03;102357.72;;;13.78;91.88
17855;BME280;9053;53.358;6.382;2023-06-04T01:07:38;102359.38;;;13.76;91.89
17855;BME280;9053;53.358;6.382;2023-06-04T01:10:15;102363.69;;;13.74;92.00
17855;BME280;9053;53.358;6.382;2023-06-04T01:12:45;102361.06;;;13.74;92.27
17855;BME280;9053;53.358;6.382;2023-06-04T01:15:15;102356.59;;;13.73;92.56
17855;BME280;9053;53.358;6.382;2023-06-04T01:17:49;102355.69;;;13.73;92.66
17855;BME280;9053;53.358;6.382;2023-06-04T01:20:26;102351.13;;;13.69;92.67
17855;BME280;9053;53.358;6.382;2023-06-04T01:23:14;102351.81;;;13.64;92.86
17855;BME280;9053;53.358;6.382;2023-06-04T01:25:48;102353.41;;;13.61;93.07
17855;BME280;9053;53.358;6.382;2023-06-04T01:28:19;102357.72;;;13.59;93.30
17855;BME280;9053;53.358;6.382;2023-06-04T01:30:50;102356.81;;;13.58;93.51
17855;BME280;9053;53.358;6.382;2023-06-04T01:33:23;102361.19;;;13.58;93.75
17855;BME280;9053;53.358;6.382;2023-06-04T01:35:53;102357.72;;;13.59;93.91
17855;BME280;9053;53.358;6.382;2023-06-04T01:38:23;102349.84;;;13.60;94.19
17855;BME280;9053;53.358;6.382;2023-06-04T01:40:56;102358.69;;;13.61;94.13
17855;BME280;9053;53.358;6.382;2023-06-04T01:43:28;102349.78;;;13.59;94.15
17855;BME280;9053;53.358;6.382;2023-06-04T01:46:02;102347.16;;;13.59;94.25
17855;BME280;9053;53.358;6.382;2023-06-04T01:48:32;102351.59;;;13.60;94.39
17855;BME280;9053;53.358;6.382;2023-06-04T01:51:02;102348.19;;;13.62;94.55
17855;BME280;9053;53.358;6.382;2023-06-04T01:53:32;102349.06;;;13.63;94.48
17855;BME280;9053;53.358;6.382;2023-06-04T01:56:05;102339.44;;;13.63;94.41
17855;BME280;9053;53.358;6.382;2023-06-04T01:58:35;102350.91;;;13.64;94.27
17855;BME280;9053;53.358;6.382;2023-06-04T02:01:06;102355.34;;;13.65;94.25
17855;BME280;9053;53.358;6.382;2023-06-04T02:03:36;102352.69;;;13.65;94.10
17855;BME280;9053;53.358;6.382;2023-06-04T02:06:07;102353.59;;;13.66;94.14
17855;BME280;9053;53.358;6.382;2023-06-04T02:08:38;102362.47;;;13.66;93.92
17855;BME280;9053;53.358;6.382;2023-06-04T02:11:11;102359.66;;;13.63;93.75
17855;BME280;9053;53.358;6.382;2023-06-04T02:13:41;102367.66;;;13.64;93.52
17855;BME280;9053;53.358;6.382;2023-06-04T02:16:11;102362.25;;;13.61;93.31
17855;BME280;9053;53.358;6.382;2023-06-04T02:18:41;102364.00;;;13.61;93.25
17855;BME280;9053;53.358;6.382;2023-06-04T02:21:11;102362.91;;;13.57;93.09
17855;BME280;9053;53.358;6.382;2023-06-04T02:23:41;102361.94;;;13.55;93.13
17855;BME280;9053;53.358;6.382;2023-06-04T02:26:13;102363.69;;;13.55;93.01
17855;BME280;9053;53.358;6.382;2023-06-04T02:28:45;102358.34;;;13.53;93.09
17855;BME280;9053;53.358;6.382;2023-06-04T02:31:15;102353.13;;;13.55;93.18
17855;BME280;9053;53.358;6.382;2023-06-04T02:33:45;102348.69;;;13.54;93.20
17855;BME280;9053;53.358;6.382;2023-06-04T02:36:14;102365.31;;;13.51;93.52
17855;BME280;9053;53.358;6.382;2023-06-04T02:38:45;102360.78;;;13.49;93.73
17855;BME280;9053;53.358;6.382;2023-06-04T02:41:18;102364.25;;;13.48;93.86
17855;BME280;9053;53.358;6.382;2023-06-04T02:43:48;102360.78;;;13.49;94.01
17855;BME280;9053;53.358;6.382;2023-06-04T02:46:18;102365.22;;;13.50;94.20
17855;BME280;9053;53.358;6.382;2023-06-04T02:48:48;102354.50;;;13.47;94.24
17855;BME280;9053;53.358;6.382;2023-06-04T02:51:18;102370.38;;;13.47;94.28
17855;BME280;9053;53.358;6.382;2023-06-04T02:53:48;102360.56;;;13.44;94.24
17855;BME280;9053;53.358;6.382;2023-06-04T02:56:21;102366.53;;;13.40;94.36
17855;BME280;9053;53.358;6.382;2023-06-04T02:58:53;102362.75;;;13.35;94.52
17855;BME280;9053;53.358;6.382;2023-06-04T03:01:24;102366.94;;;13.30;94.54
17855;BME280;9053;53.358;6.382;2023-06-04T03:03:56;102358.75;;;13.25;94.95
17855;BME280;9053;53.358;6.382;2023-06-04T03:06:28;102361.13;;;13.19;95.17
17855;BME280;9053;53.358;6.382;2023-06-04T03:08:58;102358.34;;;13.16;95.35
17855;BME280;9053;53.358;6.382;2023-06-04T03:11:30;102358.19;;;13.13;95.68
17855;BME280;9053;53.358;6.382;2023-06-04T03:14:00;102365.06;;;13.09;95.83
17855;BME280;9053;53.358;6.382;2023-06-04T03:16:30;102361.16;;;13.01;96.22
17855;BME280;9053;53.358;6.382;2023-06-04T03:19:04;102355.63;;;12.96;96.60
17855;BME280;9053;53.358;6.382;2023-06-04T03:21:38;102363.28;;;12.90;97.04
17855;BME280;9053;53.358;6.382;2023-06-04T03:24:08;102356.94;;;12.87;97.42
17855;BME280;9053;53.358;6.382;2023-06-04T03:26:41;102363.94;;;12.86;97.84
17855;BME280;9053;53.358;6.382;2023-06-04T03:34:31;102350.75;;;12.86;98.97
17855;BME280;9053;53.358;6.382;2023-06-04T03:37:05;102356.03;;;12.86;99.36
17855;BME280;9053;53.358;6.382;2023-06-04T03:39:35;102356.88;;;12.85;99.72
17855;BME280;9053;53.358;6.382;2023-06-04T03:42:15;102361.31;;;12.86;100.00
17855;BME280;9053;53.358;6.382;2023-06-04T03:44:45;102350.97;;;12.91;100.00
17855;BME280;9053;53.358;6.382;2023-06-04T03:54:28;102359.50;;;13.03;100.00
17855;BME280;9053;53.358;6.382;2023-06-04T03:57:01;102356.09;;;13.06;100.00
17855;BME280;9053;53.358;6.382;2023-06-04T03:59:35;102360.66;;;13.10;100.00
17855;BME280;9053;53.358;6.382;2023-06-04T04:02:08;102355.59;;;13.14;100.00
17855;BME280;9053;53.358;6.382;2023-06-04T04:04:52;102353.28;;;13.20;100.00
17855;BME280;9053;53.358;6.382;2023-06-04T04:14:03;102348.53;;;13.51;100.00
17855;BME280;9053;53.358;6.382;2023-06-04T04:17:06;102348.38;;;13.67;100.00
17855;BME280;9053;53.358;6.382;2023-06-04T04:20:31;102345.66;;;13.85;100.00
17855;BME280;9053;53.358;6.382;2023-06-04T04:45:53;102352.31;;;15.46;98.51
17855;BME280;9053;53.358;6.382;2023-06-04T04:49:03;102346.84;;;15.66;97.63
17855;BME280;9053;53.358;6.382;2023-06-04T04:51:51;102354.88;;;15.91;97.27
17855;BME280;9053;53.358;6.382;2023-06-04T04:54:25;102355.44;;;16.07;96.74
17855;BME280;9053;53.358;6.382;2023-06-04T04:57:00;102357.81;;;16.25;96.10
17855;BME280;9053;53.358;6.382;2023-06-04T04:59:39;102355.69;;;16.40;95.32
17855;BME280;9053;53.358;6.382;2023-06-04T05:02:09;102355.31;;;16.55;94.79
17855;BME280;9053;53.358;6.382;2023-06-04T05:04:39;102351.53;;;16.75;94.23
17855;BME280;9053;53.358;6.382;2023-06-04T05:07:12;102348.50;;;16.90;93.23
17855;BME280;9053;53.358;6.382;2023-06-04T05:09:42;102348.50;;;16.90;92.15
17855;BME280;9053;53.358;6.382;2023-06-04T05:12:12;102355.84;;;16.97;91.42
17855;BME280;9053;53.358;6.382;2023-06-04T05:14:42;102351.22;;;16.92;90.96
17855;BME280;9053;53.358;6.382;2023-06-04T05:17:13;102362.03;;;16.98;91.08
17855;BME280;9053;53.358;6.382;2023-06-04T05:19:43;102356.03;;;17.03;90.50
17855;BME280;9053;53.358;6.382;2023-06-04T05:22:18;102351.06;;;17.14;90.46
17855;BME280;9053;53.358;6.382;2023-06-04T05:24:47;102353.06;;;17.21;90.06
17855;BME280;9053;53.358;6.382;2023-06-04T05:27:18;102357.59;;;17.25;89.04
17855;BME280;9053;53.358;6.382;2023-06-04T05:29:49;102356.28;;;17.11;89.02
17855;BME280;9053;53.358;6.382;2023-06-04T05:32:19;102359.03;;;17.14;88.88
17855;BME280;9053;53.358;6.382;2023-06-04T05:34:49;102360.97;;;17.20;88.40
17855;BME280;9053;53.358;6.382;2023-06-04T05:37:26;102361.13;;;17.24;88.17
17855;BME280;9053;53.358;6.382;2023-06-04T05:39:56;102353.31;;;17.30;88.13
17855;BME280;9053;53.358;6.382;2023-06-04T05:42:26;102350.78;;;17.35;87.67
17855;BME280;9053;53.358;6.382;2023-06-04T05:44:56;102355.06;;;17.30;87.46
17855;BME280;9053;53.358;6.382;2023-06-04T05:47:27;102359.59;;;17.33;87.28
17855;BME280;9053;53.358;6.382;2023-06-04T05:49:58;102363.78;;;17.26;86.99
17855;BME280;9053;53.358;6.382;2023-06-04T05:52:31;102361.03;;;17.21;86.61
17855;BME280;9053;53.358;6.382;2023-06-04T05:55:02;102369.09;;;17.24;86.09
17855;BME280;9053;53.358;6.382;2023-06-04T05:57:35;102365.41;;;17.21;86.05
17855;BME280;9053;53.358;6.382;2023-06-04T06:00:07;102366.44;;;17.24;85.70
17855;BME280;9053;53.358;6.382;2023-06-04T06:02:38;102361.50;;;17.37;85.45
17855;BME280;9053;53.358;6.382;2023-06-04T06:05:08;102360.84;;;17.45;85.34
17855;BME280;9053;53.358;6.382;2023-06-04T06:07:41;102360.03;;;17.48;84.66
17855;BME280;9053;53.358;6.382;2023-06-04T06:10:11;102367.19;;;17.49;84.13
17855;BME280;9053;53.358;6.382;2023-06-04T06:12:42;102367.06;;;17.46;84.01
17855;BME280;9053;53.358;6.382;2023-06-04T06:15:12;102367.19;;;17.49;84.05
17855;BME280;9053;53.358;6.382;2023-06-04T06:17:42;102362.66;;;17.46;83.64
17855;BME280;9053;53.358;6.382;2023-06-04T06:20:12;102368.88;;;17.47;83.37
17855;BME280;9053;53.358;6.382;2023-06-04T06:22:47;102374.19;;;17.47;82.98
17855;BME280;9053;53.358;6.382;2023-06-04T06:25:28;102362.97;;;17.57;82.77
17855;BME280;9053;53.358;6.382;2023-06-04T06:27:58;102371.19;;;17.66;82.44
17855;BME280;9053;53.358;6.382;2023-06-04T06:30:29;102373.88;;;17.66;81.70
17855;BME280;9053;53.358;6.382;2023-06-04T06:32:59;102373.63;;;17.59;80.80
17855;BME280;9053;53.358;6.382;2023-06-04T06:35:29;102364.00;;;17.62;80.65
17855;BME280;9053;53.358;6.382;2023-06-04T06:38:02;102360.69;;;17.69;80.43
17855;BME280;9053;53.358;6.382;2023-06-04T06:40:33;102364.44;;;17.78;79.89
17855;BME280;9053;53.358;6.382;2023-06-04T06:43:03;102362.25;;;17.93;79.99
17855;BME280;9053;53.358;6.382;2023-06-04T06:45:39;102371.47;;;18.06;79.82
17855;BME280;9053;53.358;6.382;2023-06-04T06:48:10;102367.03;;;18.06;78.84
17855;BME280;9053;53.358;6.382;2023-06-04T06:50:40;102367.03;;;18.05;78.63
17855;BME280;9053;53.358;6.382;2023-06-04T06:53:13;102370.72;;;18.11;79.10
17855;BME280;9053;53.358;6.382;2023-06-04T06:55:43;102371.66;;;18.12;78.56
17855;BME280;9053;53.358;6.382;2023-06-04T06:58:13;102374.53;;;18.20;78.64
17855;BME280;9053;53.358;6.382;2023-06-04T07:00:43;102378.09;;;18.22;77.97
17855;BME280;9053;53.358;6.382;2023-06-04T07:03:13;102370.25;;;18.26;77.41
17855;BME280;9053;53.358;6.382;2023-06-04T07:05:47;102381.91;;;18.30;77.23
17855;BME280;9053;53.358;6.382;2023-06-04T07:11:10;102385.84;;;18.46;76.71
17855;BME280;9053;53.358;6.382;2023-06-04T07:13:40;102394.03;;;18.53;76.01
17855;BME280;9053;53.358;6.382;2023-06-04T07:16:12;102390.91;;;18.35;75.53
17855;BME280;9053;53.358;6.382;2023-06-04T07:18:42;102398.69;;;18.27;75.11
17855;BME280;9053;53.358;6.382;2023-06-04T07:21:12;102396.75;;;18.22;74.36
17855;BME280;9053;53.358;6.382;2023-06-04T07:24:00;102406.47;;;18.20;74.53
17855;BME280;9053;53.358;6.382;2023-06-04T07:26:34;102399.47;;;18.23;74.12
17855;BME280;9053;53.358;6.382;2023-06-04T07:29:06;102398.38;;;18.16;73.80
17855;BME280;9053;53.358;6.382;2023-06-04T07:31:39;102395.81;;;18.20;73.85
17855;BME280;9053;53.358;6.382;2023-06-04T07:34:12;102405.66;;;18.22;73.76
17855;BME280;9053;53.358;6.382;2023-06-04T07:36:44;102393.25;;;18.24;74.36
17855;BME280;9053;53.358;6.382;2023-06-04T07:39:17;102403.09;;;18.27;74.42
17855;BME280;9053;53.358;6.382;2023-06-04T07:41:54;102407.59;;;18.29;74.98
17855;BME280;9053;53.358;6.382;2023-06-04T07:44:26;102398.91;;;18.35;74.88
17855;BME280;9053;53.358;6.382;2023-06-04T07:46:56;102399.75;;;18.34;74.80
17855;BME280;9053;53.358;6.382;2023-06-04T07:49:29;102408.22;;;18.52;75.41
17855;BME280;9053;53.358;6.382;2023-06-04T07:51:59;102390.75;;;18.64;75.19
17855;BME280;9053;53.358;6.382;2023-06-04T07:54:31;102402.75;;;18.81;74.81
17855;BME280;9053;53.358;6.382;2023-06-04T07:57:05;102402.84;;;18.84;74.35
17855;BME280;9053;53.358;6.382;2023-06-04T07:59:35;102407.59;;;18.97;74.42
17855;BME280;9053;53.358;6.382;2023-06-04T08:02:06;102407.03;;;19.11;74.05
17855;BME280;9053;53.358;6.382;2023-06-04T08:04:36;102408.19;;;19.22;73.73
17855;BME280;9053;53.358;6.382;2023-06-04T08:07:11;102410.91;;;19.25;73.06
17855;BME280;9053;53.358;6.382;2023-06-04T08:09:47;102407.41;;;19.26;73.20
17855;BME280;9053;53.358;6.382;2023-06-04T08:12:16;102407.53;;;19.32;73.07
17855;BME280;9053;53.358;6.382;2023-06-04T08:14:46;102404.97;;;19.37;72.70
17855;BME280;9053;53.358;6.382;2023-06-04T08:17:17;102405.94;;;19.40;72.92
17855;BME280;9053;53.358;6.382;2023-06-04T08:19:49;102417.53;;;19.42;73.15
17855;BME280;9053;53.358;6.382;2023-06-04T08:22:22;102415.41;;;19.28;72.87
17855;BME280;9053;53.358;6.382;2023-06-04T08:24:55;102421.63;;;19.27;72.90
17855;BME280;9053;53.358;6.382;2023-06-04T08:27:25;102412.56;;;19.20;72.39
17855;BME280;9053;53.358;6.382;2023-06-04T08:29:55;102421.34;;;19.14;72.77
17855;BME280;9053;53.358;6.382;2023-06-04T08:32:25;102420.38;;;19.12;72.71
17855;BME280;9053;53.358;6.382;2023-06-04T08:35:01;102422.22;;;19.13;73.00
17855;BME280;9053;53.358;6.382;2023-06-04T08:37:35;102419.44;;;19.09;72.87
17855;BME280;9053;53.358;6.382;2023-06-04T08:40:14;102433.72;;;19.11;72.49
17855;BME280;9053;53.358;6.382;2023-06-04T08:42:46;102431.75;;;19.03;72.56
17855;BME280;9053;53.358;6.382;2023-06-04T08:45:33;102429.22;;;19.10;73.07
17855;BME280;9053;53.358;6.382;2023-06-04T08:48:10;102426.47;;;19.07;72.59
17855;BME280;9053;53.358;6.382;2023-06-04T08:50:47;102423.03;;;19.11;72.33
17855;BME280;9053;53.358;6.382;2023-06-04T08:53:17;102422.22;;;19.13;72.82
17855;BME280;9053;53.358;6.382;2023-06-04T08:55:53;102424.69;;;19.06;72.46
17855;BME280;9053;53.358;6.382;2023-06-04T08:58:27;102429.91;;;19.01;72.56
17855;BME280;9053;53.358;6.382;2023-06-04T09:01:00;102437.56;;;18.87;72.20
17855;BME280;9053;53.358;6.382;2023-06-04T09:03:33;102425.03;;;18.83;72.29
17855;BME280;9053;53.358;6.382;2023-06-04T09:06:06;102428.66;;;18.87;72.87
17855;BME280;9053;53.358;6.382;2023-06-04T09:08:39;102432.13;;;18.83;72.77
17855;BME280;9053;53.358;6.382;2023-06-04T09:11:27;102434.91;;;18.54;72.51
17855;BME280;9053;53.358;6.382;2023-06-04T09:14:04;102434.69;;;18.46;72.67
17855;BME280;9053;53.358;6.382;2023-06-04T09:16:44;102428.69;;;18.53;72.99
17855;BME280;9053;53.358;6.382;2023-06-04T09:19:16;102444.09;;;18.65;73.70
17855;BME280;9053;53.358;6.382;2023-06-04T09:21:52;102432.28;;;18.55;73.73
17855;BME280;9053;53.358;6.382;2023-06-04T09:24:23;102445.00;;;18.66;73.63
17855;BME280;9053;53.358;6.382;2023-06-04T09:26:56;102439.34;;;18.53;73.49
17855;BME280;9053;53.358;6.382;2023-06-04T09:29:27;102433.75;;;18.44;73.54
17855;BME280;9053;53.358;6.382;2023-06-04T09:32:05;102429.34;;;18.45;73.92
17855;BME280;9053;53.358;6.382;2023-06-04T09:34:35;102439.06;;;18.44;74.28
17855;BME280;9053;53.358;6.382;2023-06-04T09:37:14;102440.81;;;18.42;73.94
17855;BME280;9053;53.358;6.382;2023-06-04T09:39:52;102437.09;;;18.35;74.31
17855;BME280;9053;53.358;6.382;2023-06-04T09:42:25;102436.94;;;18.31;74.23
17855;BME280;9053;53.358;6.382;2023-06-04T09:44:55;102436.00;;;18.29;74.25
17855;BME280;9053;53.358;6.382;2023-06-04T09:47:41;102436.19;;;18.35;73.64
17855;BME280;9053;53.358;6.382;2023-06-04T09:50:12;102433.53;;;18.35;73.93
17855;BME280;9053;53.358;6.382;2023-06-04T09:52:42;102442.47;;;18.38;74.42
17855;BME280;9053;53.358;6.382;2023-06-04T09:55:16;102439.06;;;18.44;74.58
17855;BME280;9053;53.358;6.382;2023-06-04T09:57:52;102448.63;;;18.36;74.60
17855;BME280;9053;53.358;6.382;2023-06-04T10:00:23;102440.66;;;18.36;74.98
17855;BME280;9053;53.358;6.382;2023-06-04T10:02:56;102440.03;;;18.46;75.12
17855;BME280;9053;53.358;6.382;2023-06-04T10:05:29;102446.38;;;18.51;75.03
17855;BME280;9053;53.358;6.382;2023-06-04T10:08:03;102444.66;;;18.53;74.55
17855;BME280;9053;53.358;6.382;2023-06-04T10:10:36;102441.75;;;18.44;74.50
17855;BME280;9053;53.358;6.382;2023-06-04T10:13:16;102451.28;;;18.34;73.99
17855;BME280;9053;53.358;6.382;2023-06-04T10:15:47;102458.31;;;18.32;73.92
17855;BME280;9053;53.358;6.382;2023-06-04T10:18:19;102454.66;;;18.29;74.44
17855;BME280;9053;53.358;6.382;2023-06-04T10:20:49;102444.72;;;18.23;75.02
17855;BME280;9053;53.358;6.382;2023-06-04T10:23:24;102455.66;;;18.32;75.54
17855;BME280;9053;53.358;6.382;2023-06-04T10:25:56;102454.03;;;18.39;75.31
17855;BME280;9053;53.358;6.382;2023-06-04T10:28:29;102457.78;;;18.46;75.50
17855;BME280;9053;53.358;6.382;2023-06-04T10:30:59;102448.16;;;18.51;75.54
17855;BME280;9053;53.358;6.382;2023-06-04T10:33:31;102466.94;;;18.57;75.11
17855;BME280;9053;53.358;6.382;2023-06-04T10:36:18;102466.81;;;18.51;74.92
17855;BME280;9053;53.358;6.382;2023-06-04T10:38:55;102465.78;;;18.46;74.95
17855;BME280;9053;53.358;6.382;2023-06-04T10:41:37;102467.47;;;18.42;74.67
17855;BME280;9053;53.358;6.382;2023-06-04T10:44:13;102469.19;;;18.40;73.92
17855;BME280;9053;53.358;6.382;2023-06-04T10:46:43;102470.22;;;18.45;73.91
17855;BME280;9053;53.358;6.382;2023-06-04T10:49:27;102471.03;;;18.43;73.69
17855;BME280;9053;53.358;6.382;2023-06-04T10:52:09;102469.19;;;18.40;73.27
17855;BME280;9053;53.358;6.382;2023-06-04T10:54:42;102473.97;;;18.22;73.30
17855;BME280;9053;53.358;6.382;2023-06-04T10:57:13;102461.38;;;18.14;73.89
17855;BME280;9053;53.358;6.382;2023-06-04T11:00:07;102471.00;;;18.11;74.04
17855;BME280;9053;53.358;6.382;2023-06-04T11:02:49;102464.72;;;18.07;73.86
17855;BME280;9053;53.358;6.382;2023-06-04T11:05:32;102471.22;;;18.17;74.23
17855;BME280;9053;53.358;6.382;2023-06-04T11:08:03;102476.78;;;17.96;73.61
17855;BME280;9053;53.358;6.382;2023-06-04T11:10:40;102467.75;;;17.89;74.07
17855;BME280;9053;53.358;6.382;2023-06-04T11:13:12;102476.72;;;17.93;74.60
17855;BME280;9053;53.358;6.382;2023-06-04T11:15:47;102476.78;;;17.96;74.75
17855;BME280;9053;53.358;6.382;2023-06-04T11:18:18;102474.28;;;18.01;75.04
17855;BME280;9053;53.358;6.382;2023-06-04T11:20:58;102476.66;;;17.91;74.94
17855;BME280;9053;53.358;6.382;2023-06-04T11:23:28;102466.88;;;17.90;74.69
17855;BME280;9053;53.358;6.382;2023-06-04T11:25:59;102465.09;;;17.89;74.59
17855;BME280;9053;53.358;6.382;2023-06-04T11:28:29;102472.91;;;17.85;75.04
17855;BME280;9053;53.358;6.382;2023-06-04T11:31:02;102471.22;;;17.87;74.69
17855;BME280;9053;53.358;6.382;2023-06-04T11:33:41;102467.03;;;17.97;74.54
17855;BME280;9053;53.358;6.382;2023-06-04T11:36:22;102454.69;;;17.99;74.30
17855;BME280;9053;53.358;6.382;2023-06-04T11:39:03;102468.88;;;17.98;74.36
17855;BME280;9053;53.358;6.382;2023-06-04T11:41:35;102459.09;;;17.98;74.26
17855;BME280;9053;53.358;6.382;2023-06-04T11:44:06;102455.69;;;18.02;74.62
17855;BME280;9053;53.358;6.382;2023-06-04T11:46:42;102459.19;;;18.01;74.41
17855;BME280;9053;53.358;6.382;2023-06-04T11:49:16;102469.66;;;17.95;74.45
17855;BME280;9053;53.358;6.382;2023-06-04T11:51:47;102461.00;;;17.73;74.34
17855;BME280;9053;53.358;6.382;2023-06-04T11:54:18;102458.16;;;17.67;74.90
17855;BME280;9053;53.358;6.382;2023-06-04T11:56:49;102458.47;;;17.77;75.75
17855;BME280;9053;53.358;6.382;2023-06-04T11:59:20;102458.59;;;17.81;75.64
17855;BME280;9053;53.358;6.382;2023-06-04T12:01:53;102459.97;;;17.97;75.66
17855;BME280;9053;53.358;6.382;2023-06-04T12:04:29;102460.81;;;17.96;75.30
17855;BME280;9053;53.358;6.382;2023-06-04T12:07:01;102453.97;;;18.04;75.10
17855;BME280;9053;53.358;6.382;2023-06-04T12:09:33;102467.09;;;17.98;74.85
17855;BME280;9053;53.358;6.382;2023-06-04T12:12:06;102455.28;;;17.88;74.95
17855;BME280;9053;53.358;6.382;2023-06-04T12:14:39;102456.38;;;17.97;75.00
17855;BME280;9053;53.358;6.382;2023-06-04T12:17:14;102451.88;;;17.94;75.20
17855;BME280;9053;53.358;6.382;2023-06-04T12:19:46;102461.63;;;17.93;74.89
17855;BME280;9053;53.358;6.382;2023-06-04T12:22:21;102460.72;;;17.93;75.18
17855;BME280;9053;53.358;6.382;2023-06-04T12:24:53;102455.50;;;17.96;75.37
17855;BME280;9053;53.358;6.382;2023-06-04T12:27:25;102460.22;;;18.06;76.04
17855;BME280;9053;53.358;6.382;2023-06-04T12:29:58;102463.16;;;18.15;75.92
17855;BME280;9053;53.358;6.382;2023-06-04T12:32:34;102466.13;;;18.26;75.08
17855;BME280;9053;53.358;6.382;2023-06-04T12:35:05;102464.63;;;18.04;74.61
17855;BME280;9053;53.358;6.382;2023-06-04T12:37:37;102472.41;;;17.98;75.29
17855;BME280;9053;53.358;6.382;2023-06-04T12:40:08;102463.97;;;17.83;75.23
17855;BME280;9053;53.358;6.382;2023-06-04T12:42:38;102456.06;;;17.84;76.06
17855;BME280;9053;53.358;6.382;2023-06-04T12:45:13;102453.50;;;17.89;75.97
17855;BME280;9053;53.358;6.382;2023-06-04T12:47:50;102454.44;;;17.89;75.99
17855;BME280;9053;53.358;6.382;2023-06-04T12:50:20;102462.44;;;17.91;75.93
17855;BME280;9053;53.358;6.382;2023-06-04T12:52:50;102468.72;;;17.93;76.24
17855;BME280;9053;53.358;6.382;2023-06-04T12:55:20;102455.41;;;17.93;76.57
17855;BME280;9053;53.358;6.382;2023-06-04T12:57:53;102452.81;;;17.94;76.92
17855;BME280;9053;53.358;6.382;2023-06-04T13:00:23;102450.84;;;17.89;77.08
17855;BME280;9053;53.358;6.382;2023-06-04T13:02:56;102457.66;;;17.79;76.96
17855;BME280;9053;53.358;6.382;2023-06-04T13:05:26;102452.09;;;17.71;77.45
17855;BME280;9053;53.358;6.382;2023-06-04T13:07:56;102458.13;;;17.66;77.35
17855;BME280;9053;53.358;6.382;2023-06-04T13:10:28;102458.97;;;17.65;77.75
17855;BME280;9053;53.358;6.382;2023-06-04T13:12:59;102446.63;;;17.67;78.41
17855;BME280;9053;53.358;6.382;2023-06-04T13:15:29;102454.03;;;17.77;78.08
17855;BME280;9053;53.358;6.382;2023-06-04T13:18:02;102458.59;;;17.81;77.98
17855;BME280;9053;53.358;6.382;2023-06-04T13:20:36;102452.22;;;17.76;77.96
17855;BME280;9053;53.358;6.382;2023-06-04T13:23:06;102459.38;;;17.79;77.68
17855;BME280;9053;53.358;6.382;2023-06-04T13:25:43;102467.13;;;17.71;77.78
17855;BME280;9053;53.358;6.382;2023-06-04T13:28:13;102458.34;;;17.73;77.65
17855;BME280;9053;53.358;6.382;2023-06-04T13:30:46;102469.91;;;17.74;78.02
17855;BME280;9053;53.358;6.382;2023-06-04T13:33:23;102466.06;;;17.64;77.76
17855;BME280;9053;53.358;6.382;2023-06-04T13:35:54;102465.09;;;17.62;78.26
17855;BME280;9053;53.358;6.382;2023-06-04T13:38:25;102473.81;;;17.57;78.52
17855;BME280;9053;53.358;6.382;2023-06-04T13:40:58;102468.53;;;17.58;78.47
17855;BME280;9053;53.358;6.382;2023-06-04T13:43:28;102466.00;;;17.63;78.53
17855;BME280;9053;53.358;6.382;2023-06-04T13:46:02;102461.59;;;17.63;77.99
17855;BME280;9053;53.358;6.382;2023-06-04T13:48:35;102458.97;;;17.65;78.34
17855;BME280;9053;53.358;6.382;2023-06-04T13:51:05;102469.63;;;17.65;77.90
17855;BME280;9053;53.358;6.382;2023-06-04T13:53:36;102463.03;;;17.52;77.91
17855;BME280;9053;53.358;6.382;2023-06-04T13:56:05;102456.69;;;17.48;77.76
17855;BME280;9053;53.358;6.382;2023-06-04T13:58:35;102452.09;;;17.43;77.16
17855;BME280;9053;53.358;6.382;2023-06-04T14:01:05;102458.28;;;17.42;77.18
17855;BME280;9053;53.358;6.382;2023-06-04T14:03:38;102455.78;;;17.48;77.49
17855;BME280;9053;53.358;6.382;2023-06-04T14:06:08;102454.25;;;17.56;77.63
17855;BME280;9053;53.358;6.382;2023-06-04T14:08:39;102449.63;;;17.49;77.64
17855;BME280;9053;53.358;6.382;2023-06-04T14:11:09;102455.88;;;17.51;77.75
17855;BME280;9053;53.358;6.382;2023-06-04T14:13:42;102449.66;;;17.50;77.26
17855;BME280;9053;53.358;6.382;2023-06-04T14:16:14;102458.38;;;17.45;77.17